Time;durP1;ratioP1;P1;durP2;ratioP2;P2;SDS_P1;SDS_P2;PMS_P1;PMS_P2;Temp;Humidity;BMP_temperature;BMP_pressure;BME280_temperature;BME280_humidity;BME280_pressure;Samples;Min_cycle;Max_cycle;Signal;HPM_P1;HPM_P2
2022/06/06 00:01:44;;;;;;;3.10;0.90;;;;;;;26.09;35.74;101600.13;5113409;28;20062;-47
2022/06/06 00:04:13;;;;;;;1.65;0.60;;;;;;;26.11;35.88;101607.13;5114922;28;20106;-48
2022/06/06 00:06:42;;;;;;;2.00;0.68;;;;;;;26.02;35.77;101603.53;5114079;28;20034;-43
2022/06/06 00:09:12;;;;;;;4.45;0.98;;;;;;;26.09;35.87;101607.13;5113663;28;20020;-43
2022/06/06 00:11:41;;;;;;;2.72;0.60;;;;;;;26.05;35.82;101606.22;5115009;28;20066;-43
2022/06/06 00:14:11;;;;;;;0.68;0.35;;;;;;;26.02;36.13;101597.38;5113478;28;20081;-44
2022/06/06 00:16:39;;;;;;;3.85;0.80;;;;;;;26.07;35.82;101600.97;5114244;27;20027;-43
2022/06/06 00:19:08;;;;;;;1.20;0.57;;;;;;;26.02;35.93;101602.63;5113199;28;20073;-46
2022/06/06 00:21:37;;;;;;;2.17;0.60;;;;;;;26.05;35.95;101602.69;5113405;28;20076;-43
2022/06/06 00:24:05;;;;;;;1.60;0.52;;;;;;;26.01;35.72;101596.50;5114830;28;20031;-47
2022/06/06 00:26:34;;;;;;;3.80;0.80;;;;;;;25.84;35.93;101576.97;5114945;28;20043;-45
2022/06/06 00:29:03;;;;;;;1.40;0.38;;;;;;;25.92;35.67;101585.84;5114449;28;20027;-47
2022/06/06 00:35:05;;;;;;;1.73;0.73;;;;;;;25.94;36.07;101598.16;5110991;28;20388;-43
2022/06/06 00:37:10;;;;;;;1.38;0.40;;;;;;;25.92;36.00;101598.97;5113713;28;20435;-44
2022/06/06 00:39:41;;;;;;;2.40;0.73;;;;;;;25.92;35.97;101593.72;5113162;28;20481;-43
2022/06/06 00:42:29;;;;;;;2.63;0.70;;;;;;;25.93;35.87;101588.50;5113251;28;20036;-44
2022/06/06 00:45:17;;;;;;;4.20;0.57;;;;;;;25.91;35.76;101592.84;5110998;28;20050;-43
2022/06/06 00:47:46;;;;;;;4.45;0.57;;;;;;;25.87;36.10;101583.16;5114636;28;20102;-46
2022/06/06 00:50:19;;;;;;;3.53;0.77;;;;;;;25.77;35.96;101570.75;5096157;28;20453;-43
2022/06/06 00:52:49;;;;;;;1.67;0.47;;;;;;;25.83;36.26;101570.81;5113060;28;20115;-43
2022/06/06 00:55:21;;;;;;;1.65;0.50;;;;;;;25.79;35.88;101566.41;5114407;28;20102;-46
2022/06/06 00:57:53;;;;;;;1.95;0.50;;;;;;;25.78;35.79;101562.88;5113058;28;20031;-45
2022/06/06 01:00:23;;;;;;;2.10;0.60;;;;;;;25.82;35.73;101573.44;5095626;28;20103;-44
2022/06/06 01:02:54;;;;;;;3.80;0.63;;;;;;;25.77;35.97;101570.75;5112678;28;20119;-47
2022/06/06 01:05:23;;;;;;;1.70;0.60;;;;;;;25.71;36.00;101566.28;5095732;28;20031;-47
2022/06/06 01:07:52;;;;;;;1.70;0.50;;;;;;;25.75;35.88;101561.94;5113703;28;20059;-43
2022/06/06 01:10:20;;;;;;;2.08;0.52;;;;;;;25.71;35.86;101553.16;5114236;28;20023;-47
2022/06/06 01:12:51;;;;;;;1.40;0.47;;;;;;;25.73;35.91;101555.78;5112764;28;20031;-44
2022/06/06 01:15:22;;;;;;;2.47;0.70;;;;;;;25.68;35.88;101544.31;5112556;28;20130;-44
2022/06/06 01:18:07;;;;;;;2.63;0.70;;;;;;;25.67;35.72;101547.81;5113856;28;20024;-46
2022/06/06 01:20:54;;;;;;;0.77;0.28;;;;;;;25.73;35.96;101550.53;5097571;28;20123;-47
2022/06/06 01:23:53;;;;;;;1.52;0.50;;;;;;;25.65;36.06;101546.91;5112309;28;20048;-47
2022/06/06 01:26:59;;;;;;;3.08;0.70;;;;;;;25.64;35.86;101540.75;5110231;28;20042;-44
2022/06/06 01:29:34;;;;;;;2.30;0.68;;;;;;;25.68;35.77;101552.19;5109848;28;20031;-47
2022/06/06 01:32:05;;;;;;;2.60;0.50;;;;;;;25.64;35.79;101538.13;5112847;28;20043;-44
2022/06/06 01:34:37;;;;;;;1.63;0.50;;;;;;;25.60;35.95;101536.31;5112775;28;20051;-47
2022/06/06 01:37:23;;;;;;;1.73;0.63;;;;;;;25.65;35.84;101539.03;5112559;28;20034;-43
2022/06/06 01:39:52;;;;;;;1.25;0.50;;;;;;;25.51;35.98;101529.19;5113271;28;20048;-44
2022/06/06 01:42:30;;;;;;;1.85;0.50;;;;;;;25.60;35.97;101538.94;5113766;28;20496;-44
2022/06/06 01:45:07;;;;;;;1.58;0.57;;;;;;;25.59;36.02;101538.06;5112986;28;20028;-43
2022/06/06 01:47:39;;;;;;;1.77;0.60;;;;;;;25.56;35.82;101535.41;5112497;28;20028;-48
2022/06/06 01:50:08;;;;;;;1.33;0.60;;;;;;;25.54;35.88;101534.47;5113669;28;20031;-45
2022/06/06 01:53:04;;;;;;;0.50;0.45;;;;;;;25.48;35.89;101530.03;5095379;28;20435;-43
2022/06/06 01:55:33;;;;;;;1.95;0.40;;;;;;;25.58;35.55;101541.56;5109548;28;20047;-45
2022/06/06 01:58:04;;;;;;;0.98;0.40;;;;;;;25.55;35.75;101541.50;5095326;28;20020;-43
2022/06/06 02:00:35;;;;;;;1.00;0.43;;;;;;;25.54;35.58;101542.38;5096065;28;20449;-49
2022/06/06 02:03:03;;;;;;;1.95;0.65;;;;;;;25.51;35.83;101538.81;5114083;28;20111;-45
2022/06/06 02:05:32;;;;;;;1.77;0.57;;;;;;;25.46;35.85;101533.50;5111859;28;20711;-48
2022/06/06 02:08:01;;;;;;;1.92;0.40;;;;;;;25.44;35.90;101535.22;5113263;28;20031;-43
2022/06/06 02:10:28;;;;;;;1.60;0.50;;;;;;;25.46;35.70;101544.00;5113309;28;20069;-47
2022/06/06 02:12:57;;;;;;;1.27;0.55;;;;;;;25.32;35.92;101522.72;5115298;28;20093;-45
2022/06/06 02:15:27;;;;;;;2.40;0.30;;;;;;;25.43;35.97;101522.94;5117330;28;20036;-44
2022/06/06 02:17:57;;;;;;;1.30;0.40;;;;;;;25.48;35.84;101531.78;5115789;28;20110;-46
2022/06/06 02:20:28;;;;;;;1.90;0.47;;;;;;;25.41;35.72;101524.63;5115331;28;20034;-43
2022/06/06 02:22:56;;;;;;;1.90;0.38;;;;;;;25.44;36.01;101528.19;5117412;28;20185;-45
2022/06/06 02:25:26;;;;;;;0.90;0.40;;;;;;;25.40;35.63;101523.72;5115955;28;20384;-43
2022/06/06 02:27:54;;;;;;;1.08;0.40;;;;;;;25.31;35.54;101516.59;5115763;28;20024;-48
2022/06/06 02:30:27;;;;;;;0.30;0.22;;;;;;;25.41;35.49;101514.13;5116907;28;20025;-43
2022/06/06 02:32:55;;;;;;;2.90;0.77;;;;;;;25.45;35.65;101513.34;5116521;28;20035;-43
2022/06/06 02:35:29;;;;;;;1.67;0.20;;;;;;;25.38;35.84;101517.59;5117125;28;20085;-47
2022/06/06 02:37:58;;;;;;;1.08;0.47;;;;;;;25.32;35.96;101512.22;5115737;28;20465;-46
2022/06/06 02:40:28;;;;;;;1.85;0.50;;;;;;;25.37;35.42;101499.16;5116295;27;20027;-44
2022/06/06 02:42:57;;;;;;;1.63;0.57;;;;;;;25.34;35.60;101510.50;5116671;28;20122;-44
2022/06/06 02:45:25;;;;;;;1.92;0.50;;;;;;;25.25;35.98;101497.22;5115805;28;20065;-45
2022/06/06 02:47:57;;;;;;;1.08;0.43;;;;;;;25.30;35.79;101501.72;5116724;28;20428;-46
2022/06/06 02:50:28;;;;;;;1.75;0.50;;;;;;;25.31;35.69;101503.47;5115403;28;20063;-43
2022/06/06 02:52:57;;;;;;;1.52;0.40;;;;;;;25.29;35.64;101496.41;5115600;28;20027;-44
2022/06/06 02:55:27;;;;;;;1.33;0.65;;;;;;;25.23;35.78;101498.97;5116550;28;20107;-52
2022/06/06 02:57:55;;;;;;;1.83;0.50;;;;;;;25.26;35.94;101504.22;5115065;28;20024;-48
2022/06/06 03:00:27;;;;;;;0.95;0.40;;;;;;;25.22;35.55;101495.44;5116363;28;20028;-48
2022/06/06 03:02:56;;;;;;;2.08;0.40;;;;;;;25.28;35.53;101500.78;5114933;28;20561;-45
2022/06/06 03:05:40;;;;;;;1.40;0.30;;;;;;;25.29;35.25;101491.16;5116274;28;20036;-51
2022/06/06 03:08:47;;;;;;;2.57;0.80;;;;;;;25.21;35.30;101491.03;5098260;28;20023;-44
2022/06/06 03:11:53;;;;;;;0.75;0.40;;;;;;;25.14;35.86;101489.19;5112059;28;20283;-44
2022/06/06 03:14:22;;;;;;;0.70;0.20;;;;;;;25.15;35.56;101488.34;5109819;28;20126;-44
2022/06/06 03:21:05;;;;;;;0.63;0.22;;;;;;;25.22;35.21;101484.06;5112015;28;20051;-52
2022/06/06 03:23:39;;;;;;;0.63;0.20;;;;;;;25.18;35.28;101476.13;5107220;28;20036;-47
2022/06/06 03:26:31;;;;;;;1.45;0.50;;;;;;;25.16;35.71;101476.94;5115130;28;20050;-47
2022/06/06 03:29:23;;;;;;;1.85;0.63;;;;;;;25.05;35.87;101478.53;5114519;28;20084;-43
2022/06/06 03:32:13;;;;;;;0.88;0.40;;;;;;;25.14;35.35;101482.19;5114416;28;20069;-47
2022/06/06 03:34:55;;;;;;;1.40;0.30;;;;;;;25.20;35.41;101483.16;5097551;28;20194;-45
2022/06/06 03:37:33;;;;;;;0.47;0.32;;;;;;;25.19;35.20;101482.25;5115865;28;20089;-45
2022/06/06 03:40:05;;;;;;;1.75;0.40;;;;;;;25.17;35.38;101481.34;5114390;28;20031;-50
2022/06/06 03:42:57;;;;;;;1.20;0.40;;;;;;;25.11;35.62;101470.75;5115740;28;20119;-45
2022/06/06 03:45:27;;;;;;;1.80;0.60;;;;;;;25.17;35.16;101478.72;5108657;28;20036;-50
2022/06/06 03:48:19;;;;;;;2.28;0.40;;;;;;;25.08;35.56;101461.06;5115662;28;20372;-45
2022/06/06 03:51:04;;;;;;;1.20;0.50;;;;;;;25.08;35.26;101474.19;5115693;28;20024;-44
2022/06/06 03:53:37;;;;;;;;;;;;;;;25.06;35.66;101480.28;5114474;28;20024;-44
2022/06/06 03:56:13;;;;;;;1.33;0.57;;;;;;;25.11;35.18;101478.63;5114399;28;20279;-44
2022/06/06 03:58:42;;;;;;;1.58;0.50;;;;;;;25.13;35.28;101474.28;5115168;28;20107;-46
2022/06/06 04:01:14;;;;;;;0.68;0.40;;;;;;;25.03;35.58;101479.38;5114941;28;20106;-46
2022/06/06 04:03:45;;;;;;;0.95;0.47;;;;;;;25.00;35.58;101470.56;5115158;28;20032;-51
2022/06/06 04:06:13;;;;;;;0.40;0.30;;;;;;;25.03;35.22;101473.25;5114044;28;20091;-43
2022/06/06 04:08:42;;;;;;;1.08;0.40;;;;;;;24.98;35.59;101480.16;5113940;28;20083;-46
2022/06/06 04:11:32;;;;;;;0.93;0.50;;;;;;;24.99;35.45;101480.19;5115197;28;20051;-48
2022/06/06 04:14:29;;;;;;;0.55;0.30;;;;;;;24.98;35.32;101483.69;5110614;28;20050;-46
2022/06/06 04:17:22;;;;;;;1.42;0.82;;;;;;;24.97;35.58;101481.03;5111649;28;20055;-45
2022/06/06 04:20:04;;;;;;;1.55;0.50;;;;;;;24.99;35.43;101477.56;5109321;28;20115;-47
2022/06/06 04:22:57;;;;;;;2.90;0.75;;;;;;;25.00;35.16;101486.31;5113416;28;20027;-45
2022/06/06 04:25:52;;;;;;;1.75;0.50;;;;;;;24.99;35.01;101482.81;5111737;28;20085;-47
2022/06/06 04:28:30;;;;;;;3.28;0.68;;;;;;;24.87;35.43;101472.09;5114413;28;20456;-45
2022/06/06 04:31:25;;;;;;;1.38;0.60;;;;;;;24.93;35.29;101485.34;5114297;28;20031;-48
2022/06/06 04:34:04;;;;;;;2.03;0.73;;;;;;;24.96;34.97;101481.88;5109824;28;20036;-48
2022/06/06 04:36:47;;;;;;;1.27;0.70;;;;;;;24.97;35.32;101487.16;5114463;28;20126;-51
2022/06/06 04:39:43;;;;;;;2.58;0.70;;;;;;;24.96;34.99;101485.41;5113054;28;20085;-46
2022/06/06 04:42:14;;;;;;;3.35;0.50;;;;;;;24.96;35.38;101484.50;5110413;28;20092;-48
2022/06/06 04:45:04;;;;;;;1.00;0.60;;;;;;;24.99;34.93;101476.69;5114620;28;20442;-48
2022/06/06 04:47:43;;;;;;;2.63;1.23;;;;;;;24.86;35.44;101473.84;5106885;28;20457;-44
2022/06/06 04:50:14;;;;;;;2.97;1.00;;;;;;;24.99;35.37;101484.56;5114380;28;20032;-45
2022/06/06 04:52:46;;;;;;;2.60;0.82;;;;;;;24.99;34.88;101484.56;5114285;28;20482;-49
2022/06/06 04:55:17;;;;;;;1.35;0.90;;;;;;;25.07;34.94;101477.69;5113296;28;20123;-50
2022/06/06 04:57:49;;;;;;;4.03;1.10;;;;;;;25.03;34.99;101479.38;5112920;28;20023;-49
2022/06/06 05:00:18;;;;;;;4.07;1.35;;;;;;;25.12;34.99;101475.16;5112621;28;20469;-44
2022/06/06 05:02:47;;;;;;;2.70;0.98;;;;;;;25.01;34.89;101469.72;5114427;28;20028;-48
2022/06/06 05:05:15;;;;;;;3.45;1.30;;;;;;;25.05;35.14;101479.41;5112773;28;20031;-47
2022/06/06 05:08:11;;;;;;;5.65;1.58;;;;;;;25.05;34.84;101481.16;5114125;28;20019;-50
2022/06/06 05:10:46;;;;;;;5.30;2.10;;;;;;;25.06;35.26;101480.28;5113822;28;20031;-45
2022/06/06 05:13:33;;;;;;;5.03;1.77;;;;;;;25.01;35.01;101478.47;5113857;28;20083;-44
2022/06/06 05:16:07;;;;;;;3.50;1.40;;;;;;;25.02;35.12;101477.59;5113761;28;20106;-51
2022/06/06 05:18:58;;;;;;;7.45;2.08;;;;;;;25.03;35.02;101466.25;5113692;28;20020;-49
2022/06/06 05:21:59;;;;;;;6.65;1.75;;;;;;;25.02;35.44;101476.75;5107329;28;20038;-49
2022/06/06 05:25:05;;;;;;;6.30;1.88;;;;;;;24.97;35.28;101476.66;5112303;28;20040;-51
2022/06/06 05:28:10;;;;;;;4.90;2.15;;;;;;;25.01;35.62;101480.22;5109130;28;20030;-46
2022/06/06 05:30:44;;;;;;;10.18;4.05;;;;;;;25.09;35.18;101472.47;5110330;28;20035;-49
2022/06/06 05:33:19;;;;;;;8.68;2.90;;;;;;;25.06;35.27;101475.03;5113710;28;20027;-43
2022/06/06 05:36:05;;;;;;;;;;;;;;;25.06;35.26;101475.94;5112798;28;20036;-44
2022/06/06 05:39:11;;;;;;;11.60;4.47;;;;;;;25.10;35.54;101482.97;5106460;28;20015;-48
2022/06/06 05:42:02;;;;;;;11.98;5.03;;;;;;;25.10;35.47;101480.34;5108800;28;20210;-50
2022/06/06 05:45:08;;;;;;;15.93;5.68;;;;;;;25.09;35.58;101481.22;5110475;28;20104;-44
2022/06/06 05:47:56;;;;;;;11.55;4.70;;;;;;;25.11;35.47;101478.63;5112886;28;20028;-50
2022/06/06 05:51:02;;;;;;;14.00;5.20;;;;;;;25.11;35.39;101473.38;5114122;28;20394;-46
2022/06/06 05:54:00;;;;;;;17.15;5.47;;;;;;;25.16;35.63;101474.31;5111925;28;20124;-46
2022/06/06 05:56:38;;;;;;;13.77;5.20;;;;;;;25.12;35.53;101483.91;5114359;28;20035;-44
2022/06/06 05:59:26;;;;;;;11.05;4.28;;;;;;;25.07;35.76;101467.19;5117502;28;20031;-43
2022/06/06 06:02:33;;;;;;;14.13;4.60;;;;;;;24.99;35.80;101474.94;5117613;28;20028;-46
2022/06/06 06:05:19;;;;;;;11.57;5.35;;;;;;;25.01;36.06;101454.84;5112479;28;20039;-45
2022/06/06 06:08:16;;;;;;;13.00;6.13;;;;;;;25.14;35.60;101468.19;5117484;28;20118;-44
2022/06/06 06:11:08;;;;;;;14.70;4.53;;;;;;;25.25;35.41;101470.97;5113692;28;20042;-45
2022/06/06 06:13:47;;;;;;;13.82;4.78;;;;;;;25.12;35.88;101476.03;5111006;28;20528;-44
2022/06/06 06:16:17;;;;;;;10.52;4.72;;;;;;;25.13;35.98;101480.41;5117269;27;20118;-45
2022/06/06 06:18:50;;;;;;;16.42;5.25;;;;;;;25.14;36.11;101469.06;5115762;28;20050;-47
2022/06/06 06:21:23;;;;;;;16.70;5.28;;;;;;;25.19;35.59;101474.38;5117364;28;20034;-45
2022/06/06 06:24:03;;;;;;;17.33;5.90;;;;;;;25.23;35.71;101478.81;5115839;28;20043;-43
2022/06/06 06:26:32;;;;;;;15.10;4.95;;;;;;;25.25;35.84;101477.13;5116804;28;20161;-44
2022/06/06 06:29:02;;;;;;;12.88;4.60;;;;;;;25.31;35.84;101476.31;5116512;28;20472;-43
2022/06/06 06:31:45;;;;;;;12.73;4.70;;;;;;;25.31;35.84;101479.84;5115828;28;20169;-48
2022/06/06 06:34:22;;;;;;;12.18;5.13;;;;;;;25.35;35.67;101475.50;5115788;28;20051;-45
2022/06/06 06:37:11;;;;;;;19.73;4.93;;;;;;;25.38;35.74;101477.28;5116942;28;20380;-48
2022/06/06 06:39:48;;;;;;;13.57;5.82;;;;;;;25.29;35.76;101478.03;5107320;28;20097;-50
2022/06/06 06:42:44;;;;;;;15.13;5.20;;;;;;;25.38;35.83;101477.28;5116684;28;20042;-43
2022/06/06 06:45:20;;;;;;;15.70;4.72;;;;;;;25.42;36.01;101476.53;5113389;28;20575;-44
2022/06/06 06:47:53;;;;;;;16.17;5.65;;;;;;;25.41;35.88;101479.97;5116527;28;20425;-47
2022/06/06 06:50:27;;;;;;;14.77;4.70;;;;;;;25.38;35.68;101474.66;5115279;28;20039;-46
2022/06/06 06:53:01;;;;;;;12.40;5.13;;;;;;;25.37;36.06;101470.28;5116933;28;20024;-43
2022/06/06 06:55:40;;;;;;;12.18;5.20;;;;;;;25.40;36.17;101475.56;5116720;28;20024;-47
2022/06/06 06:58:39;;;;;;;10.77;4.97;;;;;;;25.38;35.71;101466.78;5115531;28;20041;-49
2022/06/06 07:01:12;;;;;;;13.45;5.75;;;;;;;25.40;35.96;101475.56;5112469;28;20043;-50
2022/06/06 07:10:23;;;;;;;13.45;4.97;;;;;;;25.44;36.22;101494.06;5112375;28;20031;-47
2022/06/06 07:12:58;;;;;;;11.77;4.47;;;;;;;25.44;36.24;101496.69;5116022;27;20031;-44
2022/06/06 07:15:28;;;;;;;11.77;4.53;;;;;;;25.47;36.25;101496.75;5116360;28;20046;-47
2022/06/06 07:18:02;;;;;;;12.45;5.05;;;;;;;25.40;36.82;101500.06;5116221;28;20023;-44
2022/06/06 07:20:30;;;;;;;11.95;4.63;;;;;;;25.44;36.59;101506.31;5115431;28;20024;-44
2022/06/06 07:23:11;;;;;;;14.25;4.00;;;;;;;25.47;36.29;101509.00;5114658;28;20050;-51
2022/06/06 07:25:43;;;;;;;10.07;3.80;;;;;;;25.44;36.61;101504.56;5116473;28;20026;-48
2022/06/06 07:28:14;;;;;;;10.75;3.92;;;;;;;25.43;36.64;101497.53;5115663;28;20027;-44
2022/06/06 07:31:04;;;;;;;9.25;3.70;;;;;;;25.48;36.75;101500.25;5097724;28;20038;-44
2022/06/06 07:33:36;;;;;;;8.80;3.25;;;;;;;25.49;36.68;101496.75;5112170;28;20043;-43
2022/06/06 07:36:23;;;;;;;12.55;4.43;;;;;;;25.50;36.98;101488.00;5114618;28;20023;-45
2022/06/06 07:39:10;;;;;;;12.10;3.70;;;;;;;25.55;36.60;101486.34;5115570;28;20449;-46
2022/06/06 07:41:56;;;;;;;6.00;3.05;;;;;;;25.62;36.49;101482.06;5112504;28;20084;-44
2022/06/06 07:44:37;;;;;;;6.40;3.30;;;;;;;25.64;36.68;101477.72;5112175;28;20039;-46
2022/06/06 07:47:12;;;;;;;6.07;2.88;;;;;;;25.57;36.76;101475.84;5115589;27;20369;-44
2022/06/06 07:50:05;;;;;;;7.00;3.30;;;;;;;25.54;37.15;101471.44;5115639;28;20024;-49
2022/06/06 07:52:51;;;;;;;8.93;2.67;;;;;;;25.53;37.02;101472.28;5115451;27;20023;-45
2022/06/06 07:55:28;;;;;;;8.02;2.47;;;;;;;25.57;36.95;101471.50;5111779;28;20035;-48
2022/06/06 07:57:56;;;;;;;7.03;2.63;;;;;;;25.60;36.91;101466.28;5115196;27;20472;-50
2022/06/06 08:00:28;;;;;;;5.35;2.28;;;;;;;25.55;37.12;101460.06;5115245;28;20517;-44
2022/06/06 08:03:18;;;;;;;6.63;3.03;;;;;;;25.66;36.97;101472.47;5115319;28;20028;-44
2022/06/06 08:06:09;;;;;;;5.13;1.80;;;;;;;25.59;37.32;101463.63;5111121;28;20115;-47
2022/06/06 08:08:43;;;;;;;5.47;2.20;;;;;;;25.69;36.83;101472.50;5107170;28;20425;-47
2022/06/06 08:11:48;;;;;;;6.28;2.17;;;;;;;25.64;37.26;101477.72;5115058;28;20031;-44
2022/06/06 08:14:44;;;;;;;9.35;2.20;;;;;;;25.71;37.17;101470.78;5108985;28;20074;-50
2022/06/06 08:17:16;;;;;;;;;;;;;;;25.79;36.89;101477.06;5115359;28;20016;-46
2022/06/06 08:20:11;;;;;;;5.22;2.22;;;;;;;25.83;36.51;101476.19;5113133;28;20353;-44
2022/06/06 08:22:42;;;;;;;4.32;2.08;;;;;;;25.84;36.36;101466.59;5110870;28;20039;-47
2022/06/06 08:25:14;;;;;;;4.95;2.00;;;;;;;25.76;36.60;101469.13;5114875;27;20384;-45
2022/06/06 08:27:46;;;;;;;4.10;1.80;;;;;;;25.79;36.82;101472.66;5114152;28;20501;-44
2022/06/06 08:30:16;;;;;;;10.13;1.80;;;;;;;25.86;36.46;101472.75;5114417;28;20434;-47
2022/06/06 08:32:44;;;;;;;3.70;1.63;;;;;;;25.86;36.61;101472.75;5114566;28;20027;-44
2022/06/06 08:35:13;;;;;;;5.53;1.67;;;;;;;25.85;36.96;101477.09;5114645;28;20028;-46
2022/06/06 08:38:01;;;;;;;5.78;2.15;;;;;;;25.89;36.89;101470.16;5114709;28;20019;-46
2022/06/06 08:40:48;;;;;;;3.40;1.50;;;;;;;25.90;36.66;101478.06;5114513;28;20366;-51
2022/06/06 08:43:38;;;;;;;4.57;1.70;;;;;;;25.86;36.96;101465.72;5110812;28;20421;-45
2022/06/06 08:46:20;;;;;;;7.95;1.75;;;;;;;25.94;36.93;101473.72;5110735;28;20416;-48
2022/06/06 08:52:41;;;;;;;3.58;1.35;;;;;;;25.92;36.67;101459.66;5108703;28;20039;-44
2022/06/06 08:55:27;;;;;;;;;;;;;;;26.09;36.46;101476.53;5104858;28;20405;-49
2022/06/06 08:58:22;;;;;;;4.75;1.13;;;;;;;26.11;36.41;101478.31;5106425;28;20380;-44
2022/06/06 09:01:01;;;;;;;4.90;1.65;;;;;;;26.10;36.75;101480.06;5113521;28;20023;-50
2022/06/06 09:03:45;;;;;;;4.93;1.52;;;;;;;26.10;36.84;101472.19;5113659;28;20389;-46
2022/06/06 09:06:29;;;;;;;6.37;1.33;;;;;;;26.12;36.79;101480.09;5112595;28;20386;-47
2022/06/06 09:09:35;;;;;;;6.85;1.58;;;;;;;26.06;37.18;101478.25;5112769;28;20275;-45
2022/06/06 09:12:23;;;;;;;6.10;1.23;;;;;;;26.03;36.76;101473.84;5104242;28;20036;-47
2022/06/06 09:14:52;;;;;;;5.40;1.48;;;;;;;26.06;37.08;101475.63;5109545;28;20067;-43
2022/06/06 09:17:41;;;;;;;5.75;1.45;;;;;;;26.03;36.91;101473.84;5113985;28;20469;-48
2022/06/06 09:20:28;;;;;;;4.78;1.00;;;;;;;26.08;36.78;101472.13;5110590;28;20438;-43
2022/06/06 09:23:12;;;;;;;3.35;1.15;;;;;;;26.11;36.80;101462.53;5110248;28;20213;-51
2022/06/06 09:26:00;;;;;;;4.65;1.10;;;;;;;26.16;36.82;101469.63;5112634;28;20393;-44
2022/06/06 09:29:07;;;;;;;2.95;1.25;;;;;;;26.19;36.89;101476.69;5106513;28;20050;-43
2022/06/06 09:31:54;;;;;;;6.70;1.40;;;;;;;26.16;36.85;101471.41;5110599;28;20043;-44
2022/06/06 09:34:41;;;;;;;3.85;0.98;;;;;;;26.16;36.82;101469.63;5114436;28;20395;-43
2022/06/06 09:37:33;;;;;;;2.45;0.80;;;;;;;26.15;36.94;101467.88;5109903;28;20546;-45
2022/06/06 09:40:34;;;;;;;3.30;0.95;;;;;;;26.11;37.19;101466.09;5110524;28;20059;-46
2022/06/06 09:43:18;;;;;;;4.18;0.82;;;;;;;26.18;36.90;101462.66;5109866;28;20035;-44
2022/06/06 09:46:14;;;;;;;10.60;1.53;;;;;;;26.25;36.94;101460.97;5112743;28;20092;-48
2022/06/06 09:48:54;;;;;;;8.25;1.27;;;;;;;26.17;36.88;101449.50;5109691;28;20039;-51
2022/06/06 09:51:37;;;;;;;2.53;0.88;;;;;;;26.23;37.10;101462.69;5113621;28;20036;-48
2022/06/06 10:00:04;;;;;;;3.45;1.10;;;;;;;26.27;37.02;101466.25;5112924;28;20035;-43
2022/06/06 10:02:52;;;;;;;2.17;0.80;;;;;;;26.26;37.15;101465.38;5113636;28;20024;-43
2022/06/06 10:05:30;;;;;;;2.03;1.00;;;;;;;26.26;37.04;101461.88;5109932;28;20492;-48
2022/06/06 10:08:24;;;;;;;5.47;0.80;;;;;;;26.24;36.98;101468.00;5113281;28;20023;-47
2022/06/06 10:11:16;;;;;;;2.35;0.70;;;;;;;26.21;37.11;101467.94;5107982;28;20111;-45
2022/06/06 10:13:54;;;;;;;2.55;0.70;;;;;;;26.12;37.55;101467.84;5110298;28;20050;-43
2022/06/06 10:16:42;;;;;;;3.45;0.55;;;;;;;26.14;37.35;101463.50;5112236;28;20023;-43
2022/06/06 10:19:35;;;;;;;4.90;0.88;;;;;;;26.11;37.54;101463.47;5113294;28;20402;-44
2022/06/06 10:22:28;;;;;;;3.30;0.68;;;;;;;25.92;37.89;101439.53;5109829;28;20046;-45
2022/06/06 10:25:23;;;;;;;2.42;0.82;;;;;;;26.09;37.78;101459.91;5108710;28;20038;-44
2022/06/06 10:27:55;;;;;;;2.35;0.65;;;;;;;26.21;37.72;101465.31;5111933;28;20030;-43
2022/06/06 10:30:49;;;;;;;2.55;0.70;;;;;;;26.20;37.51;101460.91;5112380;28;20034;-50
2022/06/06 10:33:26;;;;;;;3.03;0.88;;;;;;;26.09;37.58;101459.91;5109148;28;20062;-47
2022/06/06 10:35:59;;;;;;;4.13;0.73;;;;;;;26.14;37.50;101466.13;5115774;28;20118;-46
2022/06/06 10:38:34;;;;;;;2.20;0.95;;;;;;;26.19;37.60;101461.78;5116903;28;20025;-46
2022/06/06 10:41:16;;;;;;;2.08;0.95;;;;;;;26.20;37.53;101457.44;5115608;28;20028;-46
2022/06/06 10:44:17;;;;;;;2.33;0.68;;;;;;;26.23;37.45;101460.97;5099828;28;20046;-47
2022/06/06 10:46:57;;;;;;;3.38;0.73;;;;;;;26.31;37.29;101462.81;5108130;28;20477;-47
2022/06/06 10:49:34;;;;;;;2.88;0.57;;;;;;;26.26;37.58;101464.50;5116800;27;20107;-46
2022/06/06 10:52:21;;;;;;;0.68;0.32;;;;;;;26.16;37.66;101453.84;5116656;28;20115;-43
2022/06/06 10:55:08;;;;;;;1.48;0.60;;;;;;;26.17;37.33;101454.75;5112419;28;20118;-43
2022/06/06 10:57:58;;;;;;;3.00;0.70;;;;;;;26.16;37.64;101460.88;5116759;27;20024;-43
2022/06/06 11:00:46;;;;;;;3.03;0.50;;;;;;;26.23;37.47;101460.06;5116599;28;20160;-43
2022/06/06 11:03:37;;;;;;;2.38;0.43;;;;;;;26.27;37.60;101461.00;5113012;27;20043;-49
2022/06/06 11:06:35;;;;;;;3.15;0.93;;;;;;;26.33;37.29;101453.16;5113305;28;20485;-47
2022/06/06 11:09:27;;;;;;;2.67;0.70;;;;;;;26.33;37.50;101447.91;5114380;28;20032;-43
2022/06/06 11:12:33;;;;;;;1.73;0.35;;;;;;;26.36;37.59;101450.56;5111745;28;20097;-45
2022/06/06 11:15:04;;;;;;;1.25;0.47;;;;;;;26.34;37.67;101447.03;5110166;28;20050;-43
2022/06/06 11:17:52;;;;;;;2.03;0.60;;;;;;;26.33;37.74;101442.63;5115863;28;20019;-44
2022/06/06 11:20:43;;;;;;;3.00;0.60;;;;;;;26.32;37.68;101439.16;5115931;28;20042;-46
2022/06/06 11:23:39;;;;;;;4.75;0.70;;;;;;;26.33;37.63;101442.63;5109011;28;20032;-49
2022/06/06 11:26:26;;;;;;;1.95;0.50;;;;;;;26.32;37.52;101443.50;5111291;28;20046;-49
2022/06/06 11:29:25;;;;;;;1.15;0.50;;;;;;;26.28;38.02;101441.72;5112212;27;20031;-47
2022/06/06 11:32:11;;;;;;;4.72;0.50;;;;;;;26.20;38.17;101444.28;5111570;27;20074;-44
2022/06/06 11:35:14;;;;;;;3.05;0.65;;;;;;;26.17;38.18;101437.22;5114578;28;20042;-50
2022/06/06 11:38:07;;;;;;;1.65;0.32;;;;;;;26.26;38.12;101432.94;5111436;28;20031;-46
2022/06/06 11:41:15;;;;;;;2.15;0.70;;;;;;;26.16;38.49;101427.56;5115038;28;20023;-47
2022/06/06 11:44:18;;;;;;;3.72;0.47;;;;;;;26.17;38.69;101431.09;5109679;28;20036;-48
2022/06/06 11:47:12;;;;;;;3.35;0.60;;;;;;;26.05;38.63;101411.66;5111739;28;20032;-45
2022/06/06 11:50:03;;;;;;;3.15;0.70;;;;;;;26.15;38.70;101424.94;5109795;28;20145;-45
2022/06/06 11:52:47;;;;;;;2.55;0.52;;;;;;;26.16;38.67;101429.31;5114278;28;20030;-44
2022/06/06 11:55:47;;;;;;;2.40;0.63;;;;;;;26.15;39.05;101432.81;5115377;28;20033;-50
2022/06/06 11:58:38;;;;;;;3.22;0.60;;;;;;;26.19;38.92;101432.00;5111682;28;20036;-43
2022/06/06 12:01:15;;;;;;;2.50;0.68;;;;;;;26.19;39.13;101432.84;5110831;28;20031;-43
2022/06/06 12:03:54;;;;;;;4.55;0.73;;;;;;;26.16;39.25;101426.69;5115274;28;20024;-43
2022/06/06 12:06:35;;;;;;;2.70;0.95;;;;;;;26.13;39.18;101429.28;5115295;28;20115;-48
2022/06/06 12:09:26;;;;;;;2.10;0.75;;;;;;;26.12;39.58;101423.16;5115084;28;20028;-48
2022/06/06 12:12:14;;;;;;;2.25;0.73;;;;;;;26.10;39.40;101422.22;5111243;27;20046;-45
2022/06/06 12:15:02;;;;;;;2.70;0.82;;;;;;;26.11;39.44;101424.03;5114879;28;20389;-45
2022/06/06 12:18:08;;;;;;;3.42;0.90;;;;;;;26.11;39.49;101421.38;5114877;28;20031;-47
2022/06/06 12:20:56;;;;;;;3.95;0.80;;;;;;;26.17;39.29;101413.56;5108426;28;20042;-45
2022/06/06 12:23:47;;;;;;;2.72;0.82;;;;;;;26.13;39.57;101411.78;5111031;28;20043;-45
2022/06/06 12:26:38;;;;;;;3.20;0.60;;;;;;;26.13;39.47;101410.88;5107933;28;20122;-44
2022/06/06 12:29:29;;;;;;;2.30;0.57;;;;;;;26.12;39.57;101404.75;5111075;28;20037;-47
2022/06/06 12:31:58;;;;;;;3.17;0.80;;;;;;;26.13;39.57;101401.25;5114730;28;20188;-47
2022/06/06 12:34:51;;;;;;;3.92;1.00;;;;;;;26.01;39.98;101395.81;5113483;28;20031;-44
2022/06/06 12:37:27;;;;;;;2.38;0.73;;;;;;;26.05;39.51;101400.25;5111276;28;20168;-44
2022/06/06 12:40:33;;;;;;;2.67;0.80;;;;;;;26.05;39.78;101397.63;5113314;28;20019;-48
2022/06/06 12:43:08;;;;;;;1.90;0.70;;;;;;;26.08;39.82;101392.41;5108991;28;20043;-47
2022/06/06 12:45:58;;;;;;;2.45;0.80;;;;;;;26.03;39.77;101397.59;5113294;28;20023;-51
2022/06/06 12:49:05;;;;;;;3.08;0.57;;;;;;;26.04;40.07;101382.69;5111355;28;20130;-46
2022/06/06 12:51:43;;;;;;;4.70;0.95;;;;;;;26.07;39.98;101380.13;5114185;28;20020;-46
2022/06/06 12:55:36;;;;;;;3.00;0.88;;;;;;;26.09;39.85;101381.00;5114227;28;20023;-49